createdAt,value
2022-09-17T00:01:22.528Z,1.30
2022-09-17T00:03:52.421Z,1.87
2022-09-17T00:06:19.453Z,1.17
2022-09-17T00:08:46.328Z,1.40
2022-09-17T00:11:22.543Z,2.00
2022-09-17T00:13:50.957Z,1.70
2022-09-17T00:16:29.113Z,1.83
2022-09-17T00:18:56.154Z,1.50
2022-09-17T00:21:23.898Z,2.03
2022-09-17T00:24:00.695Z,1.57
2022-09-17T00:26:28.644Z,1.57
2022-09-17T00:28:56.446Z,1.80
2022-09-17T00:31:23.961Z,1.90
2022-09-17T00:33:51.679Z,2.10
2022-09-17T00:36:20.494Z,1.63
2022-09-17T00:38:51.971Z,1.73
2022-09-17T00:41:19.971Z,1.60
2022-09-17T00:43:50.826Z,1.70
2022-09-17T00:46:37.268Z,1.90
2022-09-17T00:49:16.726Z,1.40
2022-09-17T00:51:57.081Z,1.33
2022-09-17T00:54:28.840Z,1.43
2022-09-17T00:56:58.596Z,1.70
2022-09-17T00:59:26.574Z,1.57
2022-09-17T01:01:53.517Z,1.70
2022-09-17T01:04:23.636Z,1.60
2022-09-17T01:06:53.071Z,2.23
2022-09-17T01:09:33.044Z,1.93
2022-09-17T01:12:17.683Z,1.40
2022-09-17T01:15:01.990Z,1.40
2022-09-17T01:17:41.618Z,1.67
2022-09-17T01:20:52.971Z,1.20
2022-09-17T01:23:54.151Z,1.47
2022-09-17T01:26:42.811Z,1.10
2022-09-17T01:29:20.436Z,1.40
2022-09-17T01:32:13.469Z,1.20
2022-09-17T01:35:01.369Z,1.93
2022-09-17T01:37:49.103Z,1.40
2022-09-17T01:40:24.952Z,1.90
2022-09-17T01:43:10.471Z,1.60
2022-09-17T01:45:39.605Z,1.70
2022-09-17T01:48:12.824Z,1.10
2022-09-17T01:50:51.955Z,1.50
2022-09-17T01:53:25.415Z,1.90
2022-09-17T01:55:55.975Z,1.83
2022-09-17T01:58:26.829Z,1.23
2022-09-17T02:01:01.618Z,1.63
2022-09-17T02:03:33.852Z,1.97
2022-09-17T02:06:32.615Z,1.27
2022-09-17T02:09:28.327Z,1.50
2022-09-17T02:11:59.908Z,1.83
2022-09-17T02:14:45.335Z,1.60
2022-09-17T02:17:27.116Z,1.40
2022-09-17T02:19:55.657Z,1.67
2022-09-17T02:22:41.872Z,1.80
2022-09-17T02:25:28.639Z,2.10
2022-09-17T02:28:09.585Z,1.93
2022-09-17T02:30:42.328Z,1.70
2022-09-17T02:33:13.274Z,2.03
2022-09-17T02:35:40.235Z,2.77
2022-09-17T02:38:09.755Z,1.73
2022-09-17T02:40:46.506Z,1.70
2022-09-17T02:43:43.314Z,2.27
2022-09-17T02:46:20.353Z,1.80
2022-09-17T02:49:28.002Z,1.63
2022-09-17T02:52:23.072Z,1.70
2022-09-17T02:55:08.068Z,1.63
2022-09-17T02:57:42.504Z,2.03
2022-09-17T03:00:23.404Z,2.07
2022-09-17T03:03:10.785Z,2.30
2022-09-17T03:05:39.276Z,1.60
2022-09-17T03:08:09.681Z,2.10
2022-09-17T03:10:36.578Z,2.00
2022-09-17T03:13:04.094Z,2.00
2022-09-17T03:15:31.017Z,2.00
2022-09-17T03:17:57.822Z,2.40
2022-09-17T03:20:27.170Z,2.10
2022-09-17T03:22:53.943Z,1.67
2022-09-17T03:25:20.783Z,1.97
2022-09-17T03:27:48.359Z,1.87
2022-09-17T03:30:15.341Z,1.80
2022-09-17T03:32:42.158Z,1.83
2022-09-17T03:35:11.576Z,1.83
2022-09-17T03:37:38.465Z,1.67
2022-09-17T03:40:08.610Z,1.80
2022-09-17T03:42:37.784Z,1.60
2022-09-17T03:45:07.877Z,1.60
2022-09-17T03:47:34.655Z,1.33
2022-09-17T03:50:01.657Z,1.40
2022-09-17T03:52:28.349Z,1.70
2022-09-17T03:54:55.082Z,1.40
2022-09-17T03:57:22.827Z,1.90
2022-09-17T03:59:49.762Z,1.37
2022-09-17T04:02:16.634Z,1.60
2022-09-17T04:04:45.771Z,1.33
2022-09-17T04:07:12.594Z,1.70
2022-09-17T04:09:39.320Z,1.73
2022-09-17T04:12:08.583Z,2.00
2022-09-17T04:14:35.392Z,1.63
2022-09-17T04:17:02.209Z,2.37
2022-09-17T04:19:29.040Z,1.40
2022-09-17T04:21:55.788Z,2.07
2022-09-17T04:24:24.811Z,2.27
2022-09-17T04:26:51.673Z,1.27
2022-09-17T04:29:18.446Z,1.73
2022-09-17T04:31:47.481Z,1.50
2022-09-17T04:34:16.617Z,1.73
2022-09-17T04:36:43.318Z,1.87
2022-09-17T04:39:10.091Z,1.50
2022-09-17T04:41:36.843Z,1.53
2022-09-17T04:44:03.951Z,1.70
2022-09-17T04:46:31.014Z,1.70
2022-09-17T04:48:57.919Z,1.30
2022-09-17T04:51:24.831Z,1.90
2022-09-17T04:53:51.623Z,1.50
2022-09-17T04:56:18.510Z,1.10
2022-09-17T04:58:45.351Z,2.10
2022-09-17T05:01:13.873Z,2.30
2022-09-17T05:03:40.795Z,1.80
2022-09-17T05:06:07.521Z,1.77
2022-09-17T05:08:34.280Z,1.43
2022-09-17T05:11:03.468Z,1.63
2022-09-17T05:13:30.193Z,1.60
2022-09-17T05:15:59.453Z,1.53
2022-09-17T05:18:26.642Z,1.87
2022-09-17T05:20:56.344Z,1.87
2022-09-17T05:23:25.507Z,1.77
2022-09-17T05:25:53.008Z,1.33
2022-09-17T05:28:19.743Z,1.90
2022-09-17T05:30:46.642Z,1.63
2022-09-17T05:33:13.390Z,1.40
2022-09-17T05:35:44.099Z,1.60
2022-09-17T05:38:11.058Z,1.37
2022-09-17T05:40:38.562Z,2.00
2022-09-17T05:43:06.859Z,1.60
2022-09-17T05:45:35.164Z,2.57
2022-09-17T05:48:03.253Z,2.03
2022-09-17T05:50:30.583Z,2.20
2022-09-17T05:53:07.649Z,1.43
2022-09-17T05:55:35.247Z,2.07
2022-09-17T05:58:11.123Z,2.27
2022-09-17T06:00:41.042Z,2.10
2022-09-17T06:03:11.071Z,1.67
2022-09-17T06:05:37.955Z,2.13
2022-09-17T06:08:05.722Z,1.90
2022-09-17T06:10:35.658Z,1.80
2022-09-17T06:13:02.998Z,1.83
2022-09-17T06:15:29.816Z,2.33
2022-09-17T06:17:56.841Z,2.07
2022-09-17T06:20:26.008Z,1.70
2022-09-17T06:22:59.242Z,2.10
2022-09-17T06:25:31.880Z,3.10
2022-09-17T06:27:58.620Z,2.33
2022-09-17T06:30:27.483Z,2.60
2022-09-17T06:33:00.224Z,2.60
2022-09-17T06:35:26.930Z,2.13
2022-09-17T06:37:53.665Z,2.90
2022-09-17T06:40:25.340Z,2.70
2022-09-17T06:42:59.202Z,2.33
2022-09-17T06:45:27.127Z,3.00
2022-09-17T06:47:54.018Z,2.17
2022-09-17T06:50:23.424Z,1.93
2022-09-17T06:52:54.411Z,2.57
2022-09-17T06:55:21.552Z,2.20
2022-09-17T06:57:50.473Z,2.80
2022-09-17T07:00:17.347Z,2.10
2022-09-17T07:02:56.286Z,1.90
2022-09-17T07:05:23.643Z,2.87
2022-09-17T07:07:50.856Z,2.50
2022-09-17T07:10:17.814Z,1.93
2022-09-17T07:12:49.658Z,2.40
2022-09-17T07:15:17.197Z,2.40
2022-09-17T07:17:44.551Z,2.30
2022-09-17T07:20:12.164Z,2.50
2022-09-17T07:22:44.075Z,2.87
2022-09-17T07:25:11.560Z,2.63
2022-09-17T07:27:38.647Z,2.50
2022-09-17T07:30:08.780Z,2.40
2022-09-17T07:32:35.548Z,2.30
2022-09-17T07:35:02.434Z,2.20
2022-09-17T07:37:30.051Z,2.63
2022-09-17T07:39:56.946Z,2.27
2022-09-17T07:42:23.916Z,2.33
2022-09-17T07:44:50.669Z,2.17
2022-09-17T07:47:17.505Z,1.90
2022-09-17T07:49:46.940Z,1.87
2022-09-17T07:52:13.851Z,1.93
2022-09-17T07:54:40.715Z,2.07
2022-09-17T07:57:07.633Z,2.60
2022-09-17T07:59:34.517Z,1.90
2022-09-17T08:02:01.400Z,2.03
2022-09-17T08:04:28.262Z,1.93
2022-09-17T08:06:55.079Z,1.87
2022-09-17T08:09:22.601Z,1.80
2022-09-17T08:11:56.064Z,1.87
2022-09-17T08:14:28.483Z,1.70
2022-09-17T08:16:56.557Z,2.40
2022-09-17T08:19:23.338Z,1.87
2022-09-17T08:21:52.524Z,2.10
2022-09-17T08:24:19.447Z,2.03
2022-09-17T08:26:46.146Z,2.17
2022-09-17T08:29:12.935Z,1.43
2022-09-17T08:31:39.886Z,1.97
2022-09-17T08:34:10.601Z,1.90
2022-09-17T08:36:37.735Z,1.80
2022-09-17T08:39:04.568Z,1.53
2022-09-17T08:41:40.487Z,1.47
2022-09-17T08:44:32.597Z,2.03
2022-09-17T08:47:28.251Z,1.70
2022-09-17T08:50:01.233Z,1.70
2022-09-17T08:52:49.961Z,1.93
2022-09-17T08:55:35.155Z,1.90
2022-09-17T08:58:12.541Z,1.60
2022-09-17T09:00:56.046Z,1.20
2022-09-17T09:03:59.669Z,1.50
2022-09-17T09:07:03.768Z,1.90
2022-09-17T09:09:46.062Z,3.13
2022-09-17T09:12:29.132Z,1.33
2022-09-17T09:15:01.204Z,1.27
2022-09-17T09:17:44.152Z,1.57
2022-09-17T09:20:41.559Z,1.53
2022-09-17T09:23:18.307Z,1.40
2022-09-17T09:26:16.873Z,1.60
2022-09-17T09:29:13.296Z,1.43
2022-09-17T09:32:16.229Z,1.70
2022-09-17T09:34:47.998Z,1.70
2022-09-17T09:37:24.756Z,1.63
2022-09-17T09:39:55.103Z,1.70
2022-09-17T09:42:32.957Z,1.20
2022-09-17T09:45:34.438Z,1.57
2022-09-17T09:48:28.082Z,1.27
2022-09-17T09:51:18.052Z,1.87
2022-09-17T09:54:19.507Z,1.27
2022-09-17T09:56:51.442Z,1.43
2022-09-17T09:59:21.643Z,1.70
2022-09-17T10:01:48.863Z,1.20
2022-09-17T10:04:27.425Z,1.90
2022-09-17T10:07:02.911Z,1.30
2022-09-17T10:09:32.619Z,1.73
2022-09-17T10:12:09.972Z,1.57
2022-09-17T10:14:41.632Z,1.37
2022-09-17T10:17:21.654Z,1.90
2022-09-17T10:20:07.680Z,1.30
2022-09-17T10:22:39.688Z,1.23
2022-09-17T10:25:22.298Z,1.57
2022-09-17T10:27:50.004Z,1.33
2022-09-17T10:30:21.007Z,1.60
2022-09-17T10:33:17.760Z,1.77
2022-09-17T10:36:13.577Z,1.10
2022-09-17T10:38:44.472Z,1.30
2022-09-17T10:41:21.628Z,1.90
2022-09-17T10:43:49.646Z,1.07
2022-09-17T10:46:25.346Z,1.37
2022-09-17T10:49:08.655Z,1.73
2022-09-17T10:51:35.701Z,1.73
2022-09-17T10:54:44.853Z,1.60
2022-09-17T10:57:17.442Z,1.70
2022-09-17T11:00:07.601Z,1.27
2022-09-17T11:03:14.923Z,1.43
2022-09-17T11:06:00.412Z,1.77
2022-09-17T11:08:51.840Z,1.20
2022-09-17T11:11:46.881Z,1.83
2022-09-17T11:14:53.612Z,1.27
2022-09-17T11:17:29.546Z,1.10
2022-09-17T11:20:21.338Z,1.80
2022-09-17T11:23:26.446Z,1.20
2022-09-17T11:26:17.467Z,1.10
2022-09-17T11:29:05.596Z,1.03
2022-09-17T11:31:57.358Z,1.10
2022-09-17T11:34:35.049Z,1.20
2022-09-17T11:37:22.757Z,1.03
2022-09-17T11:39:57.366Z,1.00
2022-09-17T11:42:59.184Z,1.17
2022-09-17T11:45:34.315Z,1.03
2022-09-17T11:48:09.487Z,1.00
2022-09-17T11:50:44.409Z,1.10
2022-09-17T11:53:20.411Z,1.40
2022-09-17T11:55:59.979Z,1.20
2022-09-17T11:58:32.677Z,1.03
2022-09-17T12:01:07.043Z,1.20
2022-09-17T12:03:46.434Z,1.00
2022-09-17T12:06:23.082Z,1.10
2022-09-17T12:09:06.250Z,1.20
2022-09-17T12:11:50.913Z,1.20
2022-09-17T12:14:31.487Z,1.17
2022-09-17T12:17:00.884Z,0.97
2022-09-17T12:19:33.625Z,1.40
2022-09-17T12:22:02.136Z,0.77
2022-09-17T12:24:31.223Z,1.10
2022-09-17T12:27:07.261Z,0.80
2022-09-17T12:29:50.241Z,0.70
2022-09-17T12:32:32.169Z,0.90
2022-09-17T12:35:23.496Z,0.80
2022-09-17T12:38:11.839Z,1.10
2022-09-17T12:41:04.536Z,1.00
2022-09-17T12:43:39.883Z,1.30
2022-09-17T12:46:34.359Z,1.10
2022-09-17T12:49:19.755Z,0.90
2022-09-17T12:52:09.765Z,1.20
2022-09-17T12:54:51.672Z,0.87
2022-09-17T12:57:18.336Z,1.03
2022-09-17T13:00:01.727Z,0.90
2022-09-17T13:02:40.219Z,0.83
2022-09-17T13:05:12.987Z,1.00
2022-09-17T13:07:53.761Z,1.27
2022-09-17T13:11:06.303Z,0.90
2022-09-17T13:13:52.785Z,0.90
2022-09-17T13:16:44.130Z,1.00
2022-09-17T13:19:24.914Z,0.80
2022-09-17T13:22:07.236Z,0.90
2022-09-17T13:24:40.398Z,1.20
2022-09-17T13:27:22.848Z,1.00
2022-09-17T13:29:55.486Z,0.97
2022-09-17T13:32:38.815Z,1.00
2022-09-17T13:35:11.357Z,1.03
2022-09-17T13:37:54.789Z,1.40
2022-09-17T13:40:35.714Z,1.17
2022-09-17T13:43:14.237Z,0.90
2022-09-17T13:46:00.208Z,1.03
2022-09-17T13:48:32.622Z,0.90
2022-09-17T13:51:31.281Z,1.00
2022-09-17T13:54:10.295Z,1.10
2022-09-17T13:56:43.056Z,0.97
2022-09-17T13:59:17.449Z,0.70
2022-09-17T14:02:24.478Z,1.00
2022-09-17T14:05:19.614Z,0.93
2022-09-17T14:07:51.074Z,1.00
2022-09-17T14:10:17.772Z,0.80
2022-09-17T14:12:54.727Z,1.00
2022-09-17T14:15:43.242Z,1.10
2022-09-17T14:18:30.390Z,1.00
2022-09-17T14:21:09.354Z,0.90
2022-09-17T14:23:45.381Z,1.13
2022-09-17T14:26:27.768Z,1.10
2022-09-17T14:29:04.536Z,1.27
2022-09-17T14:31:37.562Z,1.23
2022-09-17T14:34:08.787Z,2.03
2022-09-17T14:36:38.754Z,1.27
2022-09-17T14:39:13.142Z,1.30
2022-09-17T14:41:44.360Z,0.93
2022-09-17T14:44:18.175Z,1.10
2022-09-17T14:47:07.011Z,0.70
2022-09-17T14:49:36.622Z,1.17
2022-09-17T14:52:26.331Z,1.20
2022-09-17T14:55:14.981Z,0.93
2022-09-17T14:57:41.835Z,1.00
2022-09-17T15:00:22.014Z,0.80
2022-09-17T15:02:59.323Z,0.70
2022-09-17T15:05:28.283Z,0.60
2022-09-17T15:08:27.934Z,0.90
2022-09-17T15:11:03.578Z,0.73
2022-09-17T15:13:48.776Z,0.50
2022-09-17T15:16:33.339Z,0.77
2022-09-17T15:19:06.214Z,0.60
2022-09-17T15:21:43.896Z,0.70
2022-09-17T15:24:16.978Z,0.50
2022-09-17T15:26:46.897Z,0.60
2022-09-17T15:29:14.991Z,0.67
2022-09-17T15:31:41.869Z,0.60
2022-09-17T15:34:14.672Z,0.60
2022-09-17T15:37:01.639Z,1.10
2022-09-17T15:39:39.218Z,0.60
2022-09-17T15:42:06.061Z,0.60
2022-09-17T15:44:33.012Z,1.17
2022-09-17T15:47:34.959Z,0.97
2022-09-17T15:50:26.193Z,0.80
2022-09-17T15:53:08.503Z,0.80
2022-09-17T15:55:43.814Z,0.60
2022-09-17T15:58:25.516Z,1.30
2022-09-17T16:01:18.522Z,0.50
2022-09-17T16:03:45.402Z,0.70
2022-09-17T16:06:25.312Z,0.67
2022-09-17T16:08:57.087Z,0.70
2022-09-17T16:11:28.949Z,0.87
2022-09-17T16:14:00.074Z,0.60
2022-09-17T16:16:38.254Z,0.80
2022-09-17T16:19:08.945Z,0.70
2022-09-17T16:21:35.970Z,0.77
2022-09-17T16:24:05.984Z,0.70
2022-09-17T16:26:35.268Z,0.83
2022-09-17T16:29:08.435Z,0.70
2022-09-17T16:31:35.234Z,0.80
2022-09-17T16:34:02.200Z,0.60
2022-09-17T16:36:31.239Z,1.10
2022-09-17T16:38:58.849Z,0.60
2022-09-17T16:41:25.597Z,0.63
2022-09-17T16:43:52.375Z,0.73
2022-09-17T16:46:19.294Z,0.60
2022-09-17T16:48:53.025Z,0.63
2022-09-17T16:51:20.007Z,0.80
2022-09-17T16:53:50.120Z,0.50
2022-09-17T16:56:17.064Z,0.60
2022-09-17T16:58:48.878Z,0.70
2022-09-17T17:01:16.384Z,0.67
2022-09-17T17:03:49.048Z,0.90
2022-09-17T17:06:19.808Z,0.90
2022-09-17T17:08:47.372Z,0.60
2022-09-17T17:11:16.933Z,0.83
2022-09-17T17:13:44.364Z,0.60
2022-09-17T17:16:13.544Z,0.97
2022-09-17T17:18:45.986Z,0.77
2022-09-17T17:21:14.217Z,0.73
2022-09-17T17:23:43.460Z,0.70
2022-09-17T17:26:10.331Z,1.23
2022-09-17T17:28:37.851Z,0.80
2022-09-17T17:31:05.613Z,0.80
2022-09-17T17:33:32.756Z,0.70
2022-09-17T17:36:04.132Z,0.60
2022-09-17T17:38:34.469Z,0.90
2022-09-17T17:41:07.823Z,0.80
2022-09-17T17:43:35.579Z,0.70
2022-09-17T17:46:07.911Z,0.83
2022-09-17T17:48:37.966Z,1.00
2022-09-17T17:51:10.028Z,1.60
2022-09-17T17:53:42.316Z,0.87
2022-09-17T17:56:10.414Z,0.90
2022-09-17T17:58:38.077Z,0.73
2022-09-17T18:01:26.004Z,0.70
2022-09-17T18:04:00.815Z,1.03
2022-09-17T18:06:28.900Z,0.90
2022-09-17T18:08:55.730Z,1.00
2022-09-17T18:11:24.970Z,1.03
2022-09-17T18:13:53.802Z,0.80
2022-09-17T18:16:21.660Z,0.93
2022-09-17T18:18:48.910Z,1.00
2022-09-17T18:21:18.566Z,0.60
2022-09-17T18:23:48.044Z,0.87
2022-09-17T18:26:22.775Z,1.10
2022-09-17T18:28:50.063Z,1.20
2022-09-17T18:31:31.134Z,0.90
2022-09-17T18:34:10.270Z,1.10
2022-09-17T18:36:38.918Z,0.90
2022-09-17T18:39:52.961Z,1.17
2022-09-17T18:41:58.462Z,1.10
2022-09-17T18:44:27.915Z,0.80
2022-09-17T18:46:55.029Z,1.07
2022-09-17T18:49:22.007Z,1.47
2022-09-17T18:51:48.885Z,1.03
2022-09-17T18:54:15.685Z,1.30
2022-09-17T18:56:44.672Z,0.90
2022-09-17T18:59:11.625Z,1.10
2022-09-17T19:01:39.153Z,0.90
2022-09-17T19:04:07.738Z,0.90
2022-09-17T19:06:37.146Z,1.00
2022-09-17T19:09:05.638Z,1.10
2022-09-17T19:11:39.009Z,1.43
2022-09-17T19:14:05.780Z,1.00
2022-09-17T19:16:32.723Z,0.97
2022-09-17T19:18:59.574Z,1.00
2022-09-17T19:21:26.514Z,1.00
2022-09-17T19:23:54.175Z,1.60
2022-09-17T19:26:23.159Z,0.90
2022-09-17T19:28:58.353Z,0.87
2022-09-17T19:31:26.090Z,1.00
2022-09-17T19:33:58.531Z,0.90
2022-09-17T19:36:25.530Z,0.83
2022-09-17T19:38:54.857Z,1.07
2022-09-17T19:41:23.351Z,1.30
2022-09-17T19:43:52.293Z,0.70
2022-09-17T19:46:23.447Z,1.07
2022-09-17T19:48:55.022Z,1.17
2022-09-17T19:51:23.831Z,1.33
2022-09-17T19:53:51.448Z,0.90
2022-09-17T19:56:23.157Z,0.87
2022-09-17T19:58:50.487Z,0.90
2022-09-17T20:01:20.009Z,0.90
2022-09-17T20:03:47.277Z,1.10
2022-09-17T20:06:16.896Z,1.30
2022-09-17T20:08:48.252Z,1.13
2022-09-17T20:11:16.330Z,1.13
2022-09-17T20:13:43.381Z,1.07
2022-09-17T20:16:14.665Z,1.00
2022-09-17T20:18:44.297Z,1.07
2022-09-17T20:21:20.703Z,1.00
2022-09-17T20:23:52.021Z,1.27
2022-09-17T20:26:20.930Z,1.00
2022-09-17T20:28:51.654Z,1.60
2022-09-17T20:31:24.128Z,1.37
2022-09-17T20:34:00.893Z,1.60
2022-09-17T20:36:36.006Z,1.40
2022-09-17T20:39:22.533Z,1.23
2022-09-17T20:41:52.850Z,1.10
2022-09-17T20:44:20.791Z,1.70
2022-09-17T20:46:50.237Z,1.40
2022-09-17T20:49:17.030Z,1.20
2022-09-17T20:51:43.910Z,1.37
2022-09-17T20:54:10.895Z,1.63
2022-09-17T20:56:37.663Z,1.23
2022-09-17T20:59:14.374Z,1.67
2022-09-17T21:01:44.726Z,1.30
2022-09-17T21:04:18.862Z,1.90
2022-09-17T21:06:48.856Z,1.70
2022-09-17T21:09:18.254Z,2.00
2022-09-17T21:11:46.746Z,1.20
2022-09-17T21:14:17.385Z,1.30
2022-09-17T21:16:46.821Z,1.57
2022-09-17T21:19:16.109Z,1.40
2022-09-17T21:21:43.168Z,1.33
2022-09-17T21:24:10.336Z,1.60
2022-09-17T21:26:37.863Z,1.83
2022-09-17T21:29:04.951Z,1.47
2022-09-17T21:31:36.810Z,1.63
2022-09-17T21:34:10.169Z,2.30
2022-09-17T21:36:38.427Z,2.20
2022-09-17T21:39:07.966Z,1.80
2022-09-17T21:41:38.638Z,1.57
2022-09-17T21:44:08.669Z,1.90
2022-09-17T21:46:38.128Z,2.00
2022-09-17T21:49:05.808Z,1.80
2022-09-17T21:51:39.818Z,1.93
2022-09-17T21:54:09.163Z,1.53
2022-09-17T21:56:37.068Z,1.60
2022-09-17T21:59:09.758Z,1.80
2022-09-17T22:01:42.149Z,1.60
2022-09-17T22:04:11.172Z,1.30
2022-09-17T22:06:38.199Z,2.03
2022-09-17T22:09:12.588Z,1.53
2022-09-17T22:11:41.680Z,1.63
2022-09-17T22:14:14.699Z,1.50
2022-09-17T22:16:43.927Z,1.90
2022-09-17T22:19:13.622Z,1.70
2022-09-17T22:21:44.664Z,1.80
2022-09-17T22:24:12.138Z,1.23
2022-09-17T22:26:43.278Z,1.70
2022-09-17T22:29:15.541Z,1.80
2022-09-17T22:31:48.435Z,1.43
2022-09-17T22:34:21.314Z,1.70
2022-09-17T22:36:50.731Z,2.17
2022-09-17T22:39:20.901Z,1.97
2022-09-17T22:41:48.433Z,1.90
2022-09-17T22:44:19.309Z,1.90
2022-09-17T22:46:49.001Z,2.37
2022-09-17T22:49:16.481Z,2.13
2022-09-17T22:51:44.855Z,2.60
2022-09-17T22:54:18.837Z,1.73
2022-09-17T22:56:47.201Z,2.70
2022-09-17T22:59:14.571Z,2.33
2022-09-17T23:01:41.977Z,2.87
2022-09-17T23:04:09.421Z,2.00
2022-09-17T23:06:38.748Z,2.47
2022-09-17T23:09:06.292Z,2.03
2022-09-17T23:11:37.979Z,1.93
2022-09-17T23:14:09.149Z,2.37
2022-09-17T23:16:39.693Z,1.73
2022-09-17T23:19:06.642Z,1.73
2022-09-17T23:21:36.058Z,2.40
2022-09-17T23:24:03.654Z,2.10
2022-09-17T23:26:30.887Z,1.80
2022-09-17T23:29:02.454Z,1.77
2022-09-17T23:31:34.766Z,1.60
2022-09-17T23:34:06.080Z,1.70
2022-09-17T23:36:40.352Z,1.43
2022-09-17T23:39:09.172Z,1.47
2022-09-17T23:41:45.603Z,1.70
2022-09-17T23:44:15.583Z,1.37
2022-09-17T23:46:44.138Z,1.30
2022-09-17T23:49:12.381Z,1.43
2022-09-17T23:51:39.340Z,1.40
2022-09-17T23:54:07.185Z,1.50
2022-09-17T23:56:34.976Z,1.50
2022-09-17T23:59:02.415Z,1.33
